createdAt,value
2023-01-28T00:00:52.415Z,89.4
2023-01-28T00:02:32.577Z,89.31
2023-01-28T00:04:12.740Z,89.58
2023-01-28T00:05:52.895Z,89.58
2023-01-28T00:07:32.975Z,89.64
2023-01-28T00:09:13.094Z,89.51
2023-01-28T00:10:53.245Z,89.7
2023-01-28T00:12:33.434Z,89.91
2023-01-28T00:14:13.575Z,89.91
2023-01-28T00:15:53.726Z,90.01
2023-01-28T00:17:33.824Z,90.14
2023-01-28T00:19:13.995Z,90.25
2023-01-28T00:20:54.159Z,90.39
2023-01-28T00:22:34.334Z,90.3
2023-01-28T00:24:14.537Z,90.31
2023-01-28T00:25:54.623Z,90.14
2023-01-28T00:27:34.765Z,90.32
2023-01-28T00:29:14.940Z,90.64
2023-01-28T00:30:55.064Z,90.78
2023-01-28T00:32:35.225Z,90.86
2023-01-28T00:34:15.372Z,91.27
2023-01-28T00:35:55.546Z,91.43
2023-01-28T00:37:35.658Z,91.65
2023-01-28T00:39:15.829Z,91.73
2023-01-28T00:40:55.999Z,91.87
2023-01-28T00:42:36.191Z,91.87
2023-01-28T00:44:16.339Z,91.88
2023-01-28T00:45:56.561Z,91.82
2023-01-28T00:47:36.690Z,91.97
2023-01-28T00:49:16.853Z,91.84
2023-01-28T00:50:56.988Z,91.97
2023-01-28T00:52:37.142Z,91.74
2023-01-28T00:54:17.333Z,91.58
2023-01-28T00:55:57.554Z,91.81
2023-01-28T00:57:37.742Z,91.67
2023-01-28T00:59:17.912Z,91.6
2023-01-28T01:00:58.047Z,91.74
2023-01-28T01:02:40.314Z,91.64
2023-01-28T01:04:18.399Z,91.49
2023-01-28T01:05:58.538Z,91.38
2023-01-28T01:07:38.654Z,91.36
2023-01-28T01:09:18.800Z,91.39
2023-01-28T01:10:58.938Z,91.29
2023-01-28T01:12:39.089Z,91.43
2023-01-28T01:14:19.299Z,91.43
2023-01-28T01:15:59.480Z,91.42
2023-01-28T01:17:39.514Z,91.44
2023-01-28T01:19:19.670Z,91.45
2023-01-28T01:20:59.785Z,91.38
2023-01-28T01:22:39.925Z,91.16
2023-01-28T01:24:20.099Z,91.2
2023-01-28T01:26:00.169Z,91.38
2023-01-28T01:27:40.283Z,91.31
2023-01-28T01:29:20.480Z,91.06
2023-01-28T01:31:00.665Z,90.92
2023-01-28T01:32:40.799Z,90.82
2023-01-28T01:34:20.967Z,90.8
2023-01-28T01:36:01.158Z,90.83
2023-01-28T01:37:41.327Z,90.76
2023-01-28T01:39:21.575Z,90.69
2023-01-28T01:41:01.703Z,90.68
2023-01-28T01:42:41.866Z,90.88
2023-01-28T01:44:22.011Z,90.83
2023-01-28T01:46:02.274Z,90.88
2023-01-28T01:47:42.330Z,90.75
2023-01-28T01:49:22.569Z,90.57
2023-01-28T01:51:02.685Z,90.46
2023-01-28T01:52:42.804Z,90.73
2023-01-28T01:54:22.982Z,90.76
2023-01-28T01:56:03.124Z,90.78
2023-01-28T01:57:43.287Z,90.55
2023-01-28T01:59:23.425Z,90.48
2023-01-28T02:01:03.539Z,90.25
2023-01-28T02:02:43.688Z,89.98
2023-01-28T02:04:23.855Z,90.09
2023-01-28T02:06:03.974Z,90.01
2023-01-28T02:07:44.134Z,90.3
2023-01-28T02:09:24.319Z,90.35
2023-01-28T02:11:04.484Z,90.07
2023-01-28T02:12:44.684Z,90.17
2023-01-28T02:14:30.816Z,90.22
2023-01-28T02:16:05.038Z,90.35
2023-01-28T02:17:45.179Z,90.49
2023-01-28T02:19:25.321Z,90.44
2023-01-28T02:21:05.492Z,90.38
2023-01-28T02:22:45.659Z,90.24
2023-01-28T02:24:25.830Z,90.45
2023-01-28T02:26:05.942Z,90.49
2023-01-28T02:27:46.169Z,90.31
2023-01-28T02:29:26.277Z,90.23
2023-01-28T02:31:06.482Z,90.14
2023-01-28T02:32:46.574Z,89.94
2023-01-28T02:34:26.712Z,89.9
2023-01-28T02:36:06.859Z,90.08
2023-01-28T02:37:46.984Z,89.87
2023-01-28T02:39:27.201Z,90.2
2023-01-28T02:41:07.309Z,90.48
2023-01-28T02:42:47.487Z,90
2023-01-28T02:44:27.663Z,90.04
2023-01-28T02:46:07.867Z,89.94
2023-01-28T02:47:47.961Z,89.91
2023-01-28T02:49:28.118Z,90.34
2023-01-28T02:51:08.223Z,90.1
2023-01-28T02:52:48.341Z,89.96
2023-01-28T02:54:28.525Z,89.93
2023-01-28T02:56:08.697Z,89.9
2023-01-28T02:57:48.884Z,89.66
2023-01-28T02:59:29.115Z,89.79
2023-01-28T03:01:09.247Z,89.68
2023-01-28T03:02:49.413Z,88.91
2023-01-28T03:04:29.502Z,88.89
2023-01-28T03:06:09.668Z,88.94
2023-01-28T03:07:49.757Z,88.98
2023-01-28T03:09:29.899Z,89.27
2023-01-28T03:11:10.074Z,89.32
2023-01-28T03:12:50.266Z,88.98
2023-01-28T03:14:30.418Z,89.11
2023-01-28T03:16:10.656Z,89.49
2023-01-28T03:17:50.742Z,89.58
2023-01-28T03:19:30.957Z,89.21
2023-01-28T03:21:11.103Z,89.27
2023-01-28T03:22:51.249Z,89.26
2023-01-28T03:24:31.403Z,89.01
2023-01-28T03:26:11.544Z,89.38
2023-01-28T03:27:51.692Z,89.32
2023-01-28T03:29:31.836Z,89.09
2023-01-28T03:31:11.968Z,89.09
2023-01-28T03:32:52.136Z,89.39
2023-01-28T03:34:32.333Z,89.39
2023-01-28T03:36:12.463Z,89.3
2023-01-28T03:37:52.610Z,89.24
2023-01-28T03:39:32.732Z,88.98
2023-01-28T03:41:12.901Z,89.23
2023-01-28T03:42:53.057Z,88.64
2023-01-28T03:44:33.191Z,88.4
2023-01-28T03:46:13.466Z,88.41
2023-01-28T03:47:53.452Z,88.33
2023-01-28T03:49:33.681Z,88.71
2023-01-28T03:51:13.843Z,89.14
2023-01-28T03:52:53.954Z,89.12
2023-01-28T03:54:34.210Z,88.73
2023-01-28T03:56:14.339Z,88.75
2023-01-28T03:57:54.567Z,88.75
2023-01-28T03:59:34.746Z,88.86
2023-01-28T04:01:14.870Z,89.02
2023-01-28T04:02:55.095Z,88.87
2023-01-28T04:04:35.176Z,89.65
2023-01-28T04:06:15.276Z,89.15
2023-01-28T04:07:55.441Z,89.15
2023-01-28T04:09:35.599Z,89.29
2023-01-28T04:11:15.952Z,89.32
2023-01-28T04:12:55.905Z,88.68
2023-01-28T04:14:36.048Z,88.61
2023-01-28T04:16:16.277Z,89.03
2023-01-28T04:17:56.339Z,89.46
2023-01-28T04:19:36.515Z,89.92
2023-01-28T04:21:16.672Z,89.72
2023-01-28T04:22:56.825Z,89.41
2023-01-28T04:24:37.037Z,89.6
2023-01-28T04:26:17.092Z,89.81
2023-01-28T04:27:57.255Z,89.81
2023-01-28T04:29:37.449Z,89.74
2023-01-28T04:31:17.696Z,89.81
2023-01-28T04:32:57.792Z,89.85
2023-01-28T04:34:37.933Z,89.84
2023-01-28T04:36:18.054Z,89.7
2023-01-28T04:37:58.187Z,89.58
2023-01-28T04:39:38.301Z,89.71
2023-01-28T04:41:18.423Z,89.82
2023-01-28T04:42:58.620Z,90.76
2023-01-28T04:44:38.699Z,91.53
2023-01-28T04:46:18.926Z,91.04
2023-01-28T04:47:59.091Z,90.88
2023-01-28T04:49:39.206Z,90.76
2023-01-28T04:51:19.356Z,90.6
2023-01-28T04:52:59.522Z,90.52
2023-01-28T04:54:39.755Z,90.31
2023-01-28T04:56:19.883Z,90.2
2023-01-28T04:58:00.146Z,90.63
2023-01-28T04:59:40.317Z,91.11
2023-01-28T05:01:20.419Z,91.33
2023-01-28T05:03:00.600Z,91.35
2023-01-28T05:04:40.719Z,91.39
2023-01-28T05:06:20.854Z,91.42
2023-01-28T05:08:01.085Z,91.19
2023-01-28T05:09:41.231Z,90.91
2023-01-28T05:11:21.368Z,89.67
2023-01-28T05:13:01.579Z,87.51
2023-01-28T05:14:41.670Z,88.21
2023-01-28T05:16:21.799Z,88.83
2023-01-28T05:18:02.019Z,89.3
2023-01-28T05:19:42.146Z,89.34
2023-01-28T05:21:22.292Z,89.3
2023-01-28T05:23:02.422Z,89.43
2023-01-28T05:24:42.587Z,89.44
2023-01-28T05:26:22.732Z,89.49
2023-01-28T05:28:02.919Z,89.52
2023-01-28T05:29:43.039Z,89.23
2023-01-28T05:31:23.154Z,88.01
2023-01-28T05:33:03.294Z,86.95
2023-01-28T05:34:43.500Z,85.64
2023-01-28T05:36:23.601Z,86.11
2023-01-28T05:38:03.775Z,86.38
2023-01-28T05:39:43.929Z,83.58
2023-01-28T05:41:24.136Z,82.1
2023-01-28T05:43:04.267Z,81.7
2023-01-28T05:44:44.512Z,81.88
2023-01-28T05:46:24.667Z,82.3
2023-01-28T05:48:04.775Z,82
2023-01-28T05:49:44.949Z,81.5
2023-01-28T05:51:25.105Z,82.67
2023-01-28T05:53:05.255Z,81.99
2023-01-28T05:54:45.509Z,81.57
2023-01-28T05:56:25.684Z,80.67
2023-01-28T05:58:05.881Z,80.92
2023-01-28T05:59:46.094Z,80.65
2023-01-28T06:01:26.238Z,80.73
2023-01-28T06:03:06.414Z,80.03
2023-01-28T06:04:46.602Z,79.18
2023-01-28T06:06:26.738Z,79.06
2023-01-28T06:08:06.855Z,79.93
2023-01-28T06:09:47.069Z,80.4
2023-01-28T06:11:27.200Z,80.38
2023-01-28T06:13:07.391Z,79.55
2023-01-28T06:14:47.547Z,81.13
2023-01-28T06:16:27.727Z,79.95
2023-01-28T06:18:07.845Z,80.58
2023-01-28T06:19:47.991Z,80.17
2023-01-28T06:21:30.146Z,80.65
2023-01-28T06:23:08.273Z,79.98
2023-01-28T06:24:48.421Z,80.57
2023-01-28T06:26:28.539Z,80.43
2023-01-28T06:28:08.690Z,79.49
2023-01-28T06:29:48.861Z,80.3
2023-01-28T06:31:29.073Z,81.05
2023-01-28T06:33:09.216Z,80.96
2023-01-28T06:34:49.366Z,80.79
2023-01-28T06:36:29.502Z,81.53
2023-01-28T06:38:09.630Z,81
2023-01-28T06:39:49.737Z,80.22
2023-01-28T06:41:29.920Z,80.95
2023-01-28T06:43:10.094Z,82.45
2023-01-28T06:44:50.239Z,82.53
2023-01-28T06:46:30.448Z,81.63
2023-01-28T06:48:10.572Z,80.88
2023-01-28T06:49:50.811Z,81.31
2023-01-28T06:51:30.957Z,80.88
2023-01-28T06:53:11.090Z,80.2
2023-01-28T06:54:51.324Z,79.82
2023-01-28T06:56:43.623Z,80.46
2023-01-28T06:58:23.817Z,80.44
2023-01-28T07:00:03.951Z,78.16
2023-01-28T07:01:44.153Z,77.1
2023-01-28T07:03:24.237Z,77.8
2023-01-28T07:05:04.395Z,77.45
2023-01-28T07:06:44.517Z,77.42
2023-01-28T07:08:24.654Z,77.55
2023-01-28T07:10:04.882Z,78.03
2023-01-28T07:11:45.004Z,78.84
2023-01-28T07:13:25.122Z,78.06
2023-01-28T07:15:05.251Z,78.8
2023-01-28T07:16:45.404Z,78.54
2023-01-28T07:18:25.524Z,77.74
2023-01-28T07:20:05.724Z,77.98
2023-01-28T07:21:45.884Z,78.88
2023-01-28T07:25:06.196Z,79.63
2023-01-28T07:26:46.413Z,79.9
2023-01-28T07:28:26.574Z,80.49
2023-01-28T07:30:06.736Z,80.4
2023-01-28T07:31:47.028Z,78.16
2023-01-28T07:33:27.032Z,78.33
2023-01-28T07:35:07.319Z,78.87
2023-01-28T07:36:47.334Z,78.11
2023-01-28T07:38:27.489Z,78.57
2023-01-28T07:40:07.650Z,79.19
2023-01-28T07:41:47.810Z,79.36
2023-01-28T07:43:28.017Z,79.11
2023-01-28T07:45:08.160Z,78.29
2023-01-28T07:46:48.378Z,78.33
2023-01-28T07:48:28.469Z,79.52
2023-01-28T07:50:08.633Z,78.45
2023-01-28T07:51:48.779Z,79.77
2023-01-28T07:53:29.022Z,78.95
2023-01-28T07:55:09.240Z,78.35
2023-01-28T07:56:49.368Z,78.39
2023-01-28T07:58:29.511Z,78.31
2023-01-28T08:00:09.642Z,79.1
2023-01-28T08:01:49.779Z,78.77
2023-01-28T08:03:29.955Z,78.62
2023-01-28T08:05:10.307Z,79.69
2023-01-28T08:06:50.348Z,79.44
2023-01-28T08:08:30.491Z,79.95
2023-01-28T08:10:10.671Z,81.56
2023-01-28T08:11:50.799Z,81.82
2023-01-28T08:13:30.981Z,80.51
2023-01-28T08:15:11.155Z,80.57
2023-01-28T08:16:51.315Z,79.55
2023-01-28T08:18:32.621Z,77.7
2023-01-28T08:20:11.649Z,76.51
2023-01-28T08:21:51.816Z,76.59
2023-01-28T08:23:31.952Z,76.59
2023-01-28T08:25:12.104Z,77.19
2023-01-28T08:26:52.244Z,78.11
2023-01-28T08:28:32.378Z,77.87
2023-01-28T08:30:13.008Z,76.92
2023-01-28T08:31:52.775Z,76.76
2023-01-28T08:33:32.790Z,76.37
2023-01-28T08:35:12.931Z,76.66
2023-01-28T08:36:53.087Z,77.14
2023-01-28T08:38:33.313Z,77.57
2023-01-28T08:40:13.955Z,77.34
2023-01-28T08:41:53.535Z,77
2023-01-28T08:43:33.726Z,77.76
2023-01-28T08:45:13.943Z,77.4
2023-01-28T08:46:54.082Z,77.02
2023-01-28T08:48:34.220Z,76.83
2023-01-28T08:50:14.676Z,77.85
2023-01-28T08:51:54.487Z,76.11
2023-01-28T08:53:34.665Z,75.74
2023-01-28T08:55:14.934Z,76.04
2023-01-28T08:56:55.028Z,76.6
2023-01-28T08:58:35.238Z,76.5
2023-01-28T09:00:15.826Z,76.72
2023-01-28T09:01:55.601Z,76.92
2023-01-28T09:03:35.728Z,75.61
2023-01-28T09:05:15.821Z,76.2
2023-01-28T09:06:56.099Z,75.75
2023-01-28T09:08:36.119Z,75.69
2023-01-28T09:10:16.748Z,75.1
2023-01-28T09:11:56.412Z,74.56
2023-01-28T09:13:36.531Z,74.51
2023-01-28T09:15:16.661Z,74.59
2023-01-28T09:16:56.854Z,74.39
2023-01-28T09:18:37.068Z,72.88
2023-01-28T09:20:17.780Z,74.48
2023-01-28T09:21:57.399Z,74.58
2023-01-28T09:23:37.503Z,75.48
2023-01-28T09:25:17.696Z,73.21
2023-01-28T09:26:57.870Z,73.72
2023-01-28T09:28:37.981Z,73.58
2023-01-28T09:30:18.628Z,72.81
2023-01-28T09:31:58.432Z,73.41
2023-01-28T09:33:38.443Z,73.99
2023-01-28T09:35:18.593Z,74.05
2023-01-28T09:36:58.778Z,74.84
2023-01-28T09:38:38.873Z,74.27
2023-01-28T09:40:19.046Z,73.8
2023-01-28T09:41:59.224Z,73.96
2023-01-28T09:43:39.353Z,73.54
2023-01-28T09:45:19.585Z,73.15
2023-01-28T09:46:59.892Z,74.45
2023-01-28T09:48:39.894Z,73.94
2023-01-28T09:50:20.048Z,74.32
2023-01-28T09:52:00.182Z,76.18
2023-01-28T09:53:40.346Z,73.6
2023-01-28T09:55:20.537Z,73.32
2023-01-28T09:57:00.661Z,74.33
2023-01-28T09:58:40.867Z,71.9
2023-01-28T10:00:21.535Z,70.74
2023-01-28T10:02:01.120Z,72.92
2023-01-28T10:03:41.330Z,72.15
2023-01-28T10:05:21.430Z,70.33
2023-01-28T10:07:01.584Z,70.52
2023-01-28T10:08:41.670Z,69.78
2023-01-28T10:10:21.801Z,69.19
2023-01-28T10:12:01.966Z,69.75
2023-01-28T10:13:42.114Z,70.68
2023-01-28T10:15:22.268Z,70.84
2023-01-28T10:17:02.406Z,69.27
2023-01-28T10:18:42.540Z,70.15
2023-01-28T10:20:22.788Z,69.96
2023-01-28T10:22:02.859Z,70.87
2023-01-28T10:23:43.077Z,71.12
2023-01-28T10:25:23.226Z,72.59
2023-01-28T10:27:03.419Z,72.63
2023-01-28T10:28:43.550Z,71.03
2023-01-28T10:30:23.691Z,70.72
2023-01-28T10:32:03.829Z,70.33
2023-01-28T10:33:43.980Z,71.42
2023-01-28T10:35:24.127Z,71.81
2023-01-28T10:37:04.246Z,71.04
2023-01-28T10:38:44.450Z,71.72
2023-01-28T10:40:24.595Z,71.93
2023-01-28T10:42:04.770Z,73.04
2023-01-28T10:43:44.925Z,72.41
2023-01-28T10:45:25.074Z,71.46
2023-01-28T10:47:05.232Z,70.77
2023-01-28T10:48:45.409Z,70.19
2023-01-28T10:50:25.637Z,70.67
2023-01-28T10:52:17.990Z,72.95
2023-01-28T10:53:58.156Z,71.37
2023-01-28T10:55:38.348Z,71.44
2023-01-28T10:57:18.520Z,72.33
2023-01-28T10:58:58.698Z,72.9
2023-01-28T11:00:38.844Z,72.14
2023-01-28T11:02:19.093Z,71.94
2023-01-28T11:03:59.125Z,71.91
2023-01-28T11:05:39.262Z,72.56
2023-01-28T11:07:19.424Z,71.75
2023-01-28T11:09:01.444Z,70.48
2023-01-28T11:10:39.721Z,70.77
2023-01-28T11:12:19.834Z,70.68
2023-01-28T11:14:00.036Z,71.57
2023-01-28T11:15:40.205Z,71.51
2023-01-28T11:17:20.401Z,72.06
2023-01-28T11:19:00.493Z,71.51
2023-01-28T11:20:40.716Z,72.03
2023-01-28T11:22:20.841Z,70.75
2023-01-28T11:24:01.007Z,70.87
2023-01-28T11:25:41.081Z,72.34
2023-01-28T11:27:21.236Z,72.44
2023-01-28T11:29:01.628Z,71.62
2023-01-28T11:30:41.703Z,71.89
2023-01-28T11:32:21.766Z,71.51
2023-01-28T11:34:01.923Z,71.4
2023-01-28T11:35:42.092Z,72.44
2023-01-28T11:37:22.209Z,73.21
2023-01-28T11:39:02.383Z,71.73
2023-01-28T11:40:42.517Z,71.77
2023-01-28T11:42:22.672Z,72.28
2023-01-28T11:44:02.762Z,73.3
2023-01-28T11:45:46.127Z,72.01
2023-01-28T11:47:23.146Z,72.8
2023-01-28T11:49:03.263Z,73.21
2023-01-28T11:50:43.400Z,72.93
2023-01-28T11:52:23.586Z,71.85
2023-01-28T11:54:03.673Z,71.27
2023-01-28T11:55:43.928Z,70.55
2023-01-28T11:57:24.037Z,71.47
2023-01-28T11:59:04.204Z,70.04
2023-01-28T12:00:44.298Z,70.39
2023-01-28T12:02:24.486Z,71.98
2023-01-28T12:04:04.592Z,71.35
2023-01-28T12:05:44.754Z,70.84
2023-01-28T12:07:24.911Z,70.82
2023-01-28T12:09:05.053Z,71.28
2023-01-28T12:10:45.190Z,70.39
2023-01-28T12:12:25.346Z,69.47
2023-01-28T12:14:05.574Z,68.71
2023-01-28T12:15:45.719Z,68.39
2023-01-28T12:17:26.385Z,69.09
2023-01-28T12:19:06.021Z,67.8
2023-01-28T12:20:46.228Z,67.9
2023-01-28T12:22:29.439Z,68.64
2023-01-28T12:24:06.543Z,68.17
2023-01-28T12:25:46.696Z,68.14
2023-01-28T12:27:26.833Z,69.62
2023-01-28T12:29:07.012Z,69.05
2023-01-28T12:30:47.276Z,68.15
2023-01-28T12:32:27.345Z,68.5
2023-01-28T12:34:07.546Z,68.43
2023-01-28T12:35:47.704Z,67.9
2023-01-28T12:37:27.865Z,67.23
2023-01-28T12:39:08.013Z,67.17
2023-01-28T12:40:48.194Z,66.2
2023-01-28T12:42:28.319Z,66.58
2023-01-28T12:44:08.474Z,66.33
2023-01-28T12:45:48.694Z,66.15
2023-01-28T12:47:28.859Z,65.69
2023-01-28T12:49:09.000Z,67.68
2023-01-28T12:50:49.192Z,66.91
2023-01-28T12:52:29.352Z,67.19
2023-01-28T12:54:09.504Z,65.89
2023-01-28T12:55:49.695Z,67.03
2023-01-28T12:57:29.991Z,66.24
2023-01-28T12:59:10.090Z,66.76
2023-01-28T13:00:50.314Z,67.96
2023-01-28T13:02:30.484Z,67.68
2023-01-28T13:04:10.626Z,66.33
2023-01-28T13:05:50.743Z,68.77
2023-01-28T13:07:30.899Z,67.33
2023-01-28T13:09:11.046Z,67.95
2023-01-28T13:10:51.169Z,67.2
2023-01-28T13:12:31.337Z,66.8
2023-01-28T13:14:11.547Z,66.92
2023-01-28T13:15:51.676Z,65.2
2023-01-28T13:17:31.832Z,66.03
2023-01-28T13:19:12.002Z,67.59
2023-01-28T13:20:54.762Z,64.32
2023-01-28T13:22:32.282Z,65.84
2023-01-28T13:24:12.438Z,63.56
2023-01-28T13:25:52.579Z,67.48
2023-01-28T13:27:32.712Z,65.39
2023-01-28T13:29:12.896Z,64.61
2023-01-28T13:30:53.043Z,63.57
2023-01-28T13:32:33.248Z,66.06
2023-01-28T13:34:13.287Z,61.96
2023-01-28T13:35:53.475Z,64.14
2023-01-28T13:37:33.602Z,66.51
2023-01-28T13:39:13.765Z,62.91
2023-01-28T13:40:53.949Z,60.63
2023-01-28T13:42:34.079Z,62.19
2023-01-28T13:44:14.216Z,60.13
2023-01-28T13:45:54.453Z,58.28
2023-01-28T13:47:34.576Z,56.84
2023-01-28T13:49:14.693Z,57.69
2023-01-28T13:50:54.929Z,59.9
2023-01-28T13:52:35.019Z,57.77
2023-01-28T13:54:15.144Z,58.55
2023-01-28T13:55:55.368Z,55.22
2023-01-28T13:57:35.535Z,60.34
2023-01-28T13:59:15.727Z,56.35
2023-01-28T14:00:56.101Z,54.98
2023-01-28T14:02:36.383Z,55.38
2023-01-28T14:04:16.582Z,59.16
2023-01-28T14:05:59.817Z,57.94
2023-01-28T14:07:36.996Z,59.06
2023-01-28T14:09:19.293Z,57.21
2023-01-28T14:10:57.220Z,57.74
2023-01-28T14:12:37.371Z,58.84
2023-01-28T14:14:17.564Z,58.7
2023-01-28T14:15:57.766Z,59.65
2023-01-28T14:17:37.937Z,60.32
2023-01-28T14:19:18.079Z,62.32
2023-01-28T14:20:58.264Z,64.19
2023-01-28T14:22:38.386Z,64.52
2023-01-28T14:24:18.684Z,64.97
2023-01-28T14:25:58.707Z,63.87
2023-01-28T14:27:38.823Z,64.95
2023-01-28T14:29:19.055Z,65.29
2023-01-28T14:30:59.296Z,65.11
2023-01-28T14:32:39.357Z,65.54
2023-01-28T14:34:19.503Z,66.68
2023-01-28T14:35:59.665Z,66.13
2023-01-28T14:37:39.840Z,67.19
2023-01-28T14:39:19.971Z,67.97
2023-01-28T14:41:00.270Z,68.54
2023-01-28T14:42:40.304Z,68.37
2023-01-28T14:44:20.405Z,68.64
2023-01-28T14:46:00.597Z,68.76
2023-01-28T14:47:40.750Z,69.32
2023-01-28T14:49:20.887Z,69.41
2023-01-28T14:51:01.015Z,69.56
2023-01-28T14:52:41.196Z,69.28
2023-01-28T14:54:21.370Z,70.14
2023-01-28T14:56:01.570Z,69.91
2023-01-28T14:57:41.732Z,70.37
2023-01-28T14:59:21.865Z,70.06
2023-01-28T15:01:01.966Z,70.28
2023-01-28T15:02:42.210Z,70.6
2023-01-28T15:04:22.322Z,70.33
2023-01-28T15:06:02.456Z,70.58
2023-01-28T15:07:42.620Z,70.95
2023-01-28T15:09:22.753Z,70.86
2023-01-28T15:11:02.928Z,71.53
2023-01-28T15:12:43.096Z,70.92
2023-01-28T15:14:23.267Z,71.63
2023-01-28T15:16:03.413Z,71.24
2023-01-28T15:17:43.588Z,72.11
2023-01-28T15:19:23.691Z,72.67
2023-01-28T15:21:03.800Z,72.86
2023-01-28T15:22:43.956Z,72.61
2023-01-28T15:24:24.132Z,72.68
2023-01-28T15:26:04.276Z,73.32
2023-01-28T15:27:44.461Z,72.83
2023-01-28T15:29:24.583Z,73.55
2023-01-28T15:31:07.935Z,74.66
2023-01-28T15:32:44.843Z,75.32
2023-01-28T15:34:24.973Z,75.42
2023-01-28T15:36:05.089Z,75.21
2023-01-28T15:37:45.245Z,75.15
2023-01-28T15:39:25.357Z,75.37
2023-01-28T15:41:05.482Z,75.52
2023-01-28T15:42:45.600Z,75.66
2023-01-28T15:44:25.745Z,76.02
2023-01-28T15:46:05.918Z,76.1
2023-01-28T15:47:46.185Z,76.22
2023-01-28T15:49:26.285Z,76.15
2023-01-28T15:51:09.516Z,76.12
2023-01-28T15:52:46.589Z,76.65
2023-01-28T15:54:26.740Z,77.14
2023-01-28T15:56:06.906Z,77.18
2023-01-28T15:57:47.082Z,77.26
2023-01-28T15:59:27.260Z,77.98
2023-01-28T16:01:07.500Z,78.05
2023-01-28T16:02:47.530Z,78.22
2023-01-28T16:04:27.663Z,78.78
2023-01-28T16:06:09.607Z,78.74
2023-01-28T16:07:48.002Z,78.71
2023-01-28T16:09:28.187Z,78.72
2023-01-28T16:11:08.320Z,79.21
2023-01-28T16:12:48.427Z,79.87
2023-01-28T16:14:28.630Z,80.3
2023-01-28T16:16:08.839Z,81.68
2023-01-28T16:17:48.913Z,82.22
2023-01-28T16:19:29.060Z,82.86
2023-01-28T16:21:10.578Z,83.26
2023-01-28T16:22:49.381Z,83.41
2023-01-28T16:24:29.629Z,83.78
2023-01-28T16:26:09.695Z,84.04
2023-01-28T16:27:49.851Z,84.61
2023-01-28T16:29:31.074Z,84.35
2023-01-28T16:31:10.343Z,84.74
2023-01-28T16:32:50.380Z,85.1
2023-01-28T16:34:30.636Z,85.62
2023-01-28T16:36:10.696Z,86.46
2023-01-28T16:37:50.847Z,86.92
2023-01-28T16:39:34.080Z,86.65
2023-01-28T16:41:11.219Z,86.7
2023-01-28T16:42:51.351Z,87.61
2023-01-28T16:44:31.496Z,88.05
2023-01-28T16:46:11.663Z,88.38
2023-01-28T16:47:51.865Z,88.39
2023-01-28T16:49:32.021Z,88.93
2023-01-28T16:51:12.186Z,89.5
2023-01-28T16:52:52.313Z,89.3
2023-01-28T16:54:32.473Z,90.03
2023-01-28T16:56:24.962Z,90.45
2023-01-28T16:57:52.804Z,91.23
2023-01-28T16:59:32.976Z,91.41
2023-01-28T17:01:13.143Z,91.37
2023-01-28T17:02:53.235Z,91.64
2023-01-28T17:04:33.404Z,92.18
2023-01-28T17:06:13.555Z,92.2
2023-01-28T17:07:56.726Z,92.14
2023-01-28T17:09:33.818Z,91.93
2023-01-28T17:11:13.945Z,92.3
2023-01-28T17:12:54.099Z,92.59
2023-01-28T17:14:34.251Z,92.73
2023-01-28T17:16:14.462Z,92.58
2023-01-28T17:17:54.591Z,92.39
2023-01-28T17:19:34.776Z,92.58
2023-01-28T17:21:15.017Z,92.61
2023-01-28T17:22:55.311Z,92.41
2023-01-28T17:24:35.455Z,92.53
2023-01-28T17:26:15.565Z,92.8
2023-01-28T17:27:55.733Z,92.46
2023-01-28T17:29:35.884Z,92.69
2023-01-28T17:31:16.120Z,92.99
2023-01-28T17:32:56.164Z,93.07
2023-01-28T17:34:36.334Z,93
2023-01-28T17:36:16.439Z,92.7
2023-01-28T17:37:56.607Z,93.04
2023-01-28T17:39:36.725Z,93.51
2023-01-28T17:41:16.896Z,93.55
2023-01-28T17:42:57.034Z,93.38
2023-01-28T17:44:37.213Z,93.41
2023-01-28T17:46:17.533Z,93.72
2023-01-28T17:47:57.586Z,93.94
2023-01-28T17:49:37.717Z,94.04
2023-01-28T17:51:17.867Z,93.93
2023-01-28T17:52:58.077Z,93.61
2023-01-28T17:54:38.259Z,94.1
2023-01-28T17:56:18.480Z,94.86
2023-01-28T17:57:58.615Z,95.55
2023-01-28T17:59:38.775Z,95.76
2023-01-28T18:01:18.989Z,95.99
2023-01-28T18:02:59.127Z,96.07
2023-01-28T18:04:39.336Z,95.64
2023-01-28T18:06:19.468Z,95.52
2023-01-28T18:07:59.547Z,95.37
2023-01-28T18:09:39.698Z,95.12
2023-01-28T18:11:19.846Z,94.93
2023-01-28T18:12:59.986Z,94.55
2023-01-28T18:14:40.161Z,94.5
2023-01-28T18:16:20.354Z,94.46
2023-01-28T18:18:00.479Z,94.85
2023-01-28T18:19:40.646Z,94.86
2023-01-28T18:21:20.811Z,94.9
2023-01-28T18:23:00.956Z,95.34
2023-01-28T18:24:41.092Z,95.59
2023-01-28T18:26:21.224Z,95.23
2023-01-28T18:28:01.432Z,94.97
2023-01-28T18:29:41.583Z,94.82
2023-01-28T18:31:21.740Z,94.57
2023-01-28T18:33:01.883Z,94.64
2023-01-28T18:34:42.064Z,94.74
2023-01-28T18:36:22.240Z,94.91
2023-01-28T18:38:02.372Z,94.89
2023-01-28T18:39:44.421Z,95
2023-01-28T18:41:22.657Z,95.1
2023-01-28T18:43:02.779Z,95.05
2023-01-28T18:44:53.632Z,95.05
2023-01-28T18:46:33.785Z,94.69
2023-01-28T18:48:13.973Z,94.53
2023-01-28T18:49:54.099Z,94.91
2023-01-28T18:51:34.237Z,95.14
2023-01-28T18:53:14.400Z,95.27
2023-01-28T18:54:54.541Z,95.25
2023-01-28T18:56:34.705Z,95.48
2023-01-28T18:58:17.919Z,95.76
2023-01-28T18:59:55.034Z,95.97
2023-01-28T19:01:35.333Z,96.13
2023-01-28T19:03:15.387Z,95.76
2023-01-28T19:04:55.503Z,95.62
2023-01-28T19:06:35.637Z,95.66
2023-01-28T19:08:15.798Z,95.95
2023-01-28T19:09:59.017Z,96.42
2023-01-28T19:11:36.089Z,96.49
2023-01-28T19:13:16.230Z,96.36
2023-01-28T19:14:56.385Z,96.3
2023-01-28T19:16:36.538Z,95.98
2023-01-28T19:18:16.631Z,95.83
2023-01-28T19:19:56.811Z,95.96
2023-01-28T19:21:36.939Z,96.21
2023-01-28T19:23:17.101Z,96.49
2023-01-28T19:24:57.243Z,96.63
2023-01-28T19:26:37.362Z,96.81
2023-01-28T19:28:17.514Z,96.76
2023-01-28T19:29:57.694Z,96.73
2023-01-28T19:31:37.939Z,96.83
2023-01-28T19:33:17.970Z,96.93
2023-01-28T19:34:58.149Z,97.15
2023-01-28T19:36:38.323Z,96.77
2023-01-28T19:38:18.436Z,96.62
2023-01-28T19:39:58.598Z,96.59
2023-01-28T19:41:38.800Z,96.87
2023-01-28T19:43:18.917Z,97.17
2023-01-28T19:44:59.103Z,97.38
2023-01-28T19:46:39.273Z,97.25
2023-01-28T19:48:19.374Z,97.16
2023-01-28T19:49:59.533Z,97.43
2023-01-28T19:51:39.690Z,97.75
2023-01-28T19:53:19.839Z,97.81
2023-01-28T19:55:00.037Z,97.67
2023-01-28T19:56:40.149Z,97.53
2023-01-28T19:58:20.294Z,97.4
2023-01-28T20:00:00.493Z,97.68
2023-01-28T20:01:40.689Z,97.75
2023-01-28T20:03:20.805Z,97.93
2023-01-28T20:05:01.467Z,97.99
2023-01-28T20:06:41.076Z,98.27
2023-01-28T20:08:21.249Z,98.57
2023-01-28T20:10:01.416Z,98.69
2023-01-28T20:11:41.525Z,98.73
2023-01-28T20:13:21.700Z,98.52
2023-01-28T20:15:01.919Z,98.36
2023-01-28T20:16:41.994Z,98.25
2023-01-28T20:18:22.174Z,98.04
2023-01-28T20:20:02.320Z,97.7
2023-01-28T20:21:42.475Z,97.74
2023-01-28T20:23:22.671Z,97.89
2023-01-28T20:25:03.020Z,97.85
2023-01-28T20:26:43.009Z,97.7
2023-01-28T20:28:23.109Z,97.74
2023-01-28T20:30:03.292Z,97.85
2023-01-28T20:31:43.611Z,98.14
2023-01-28T20:33:23.615Z,98.32
2023-01-28T20:35:03.772Z,98.3
2023-01-28T20:36:43.940Z,98.48
2023-01-28T20:38:24.069Z,98.53
2023-01-28T20:40:04.273Z,98.67
2023-01-28T20:41:44.484Z,98.76
2023-01-28T20:43:24.652Z,98.62
2023-01-28T20:45:04.795Z,98.38
2023-01-28T20:46:44.972Z,98.11
2023-01-28T20:48:25.095Z,98.28
2023-01-28T20:50:05.263Z,98.54
2023-01-28T20:51:45.420Z,98.72
2023-01-28T20:53:25.542Z,98.69
2023-01-28T20:55:05.757Z,98.39
2023-01-28T20:56:45.915Z,98.12
2023-01-28T20:58:26.017Z,98.04
2023-01-28T21:00:06.196Z,98.16
2023-01-28T21:01:46.483Z,98.41
2023-01-28T21:03:26.535Z,98.56
2023-01-28T21:05:06.677Z,98.54
2023-01-28T21:06:46.820Z,98.81
2023-01-28T21:08:27.002Z,98.81
2023-01-28T21:10:07.161Z,98.52
2023-01-28T21:11:47.304Z,98.17
2023-01-28T21:13:27.457Z,98.08
2023-01-28T21:15:07.568Z,98.32
2023-01-28T21:16:47.746Z,98.59
2023-01-28T21:18:30.930Z,98.96
2023-01-28T21:20:08.036Z,99.13
2023-01-28T21:21:48.184Z,99.17
2023-01-28T21:23:28.346Z,99.28
2023-01-28T21:25:08.470Z,99.35
2023-01-28T21:26:48.609Z,99.4
2023-01-28T21:28:28.769Z,99.39
2023-01-28T21:30:08.894Z,99.2
2023-01-28T21:31:49.141Z,99.03
2023-01-28T21:33:29.194Z,98.99
2023-01-28T21:35:09.293Z,98.94
2023-01-28T21:36:49.431Z,98.86